sensor_id;sensor_type;location;lat;lon;timestamp;P1;P2;P0
50956;PMS5003;55361;50.876;20.634;2024-03-23T01:00:16;34;30;20
50956;PMS5003;55361;50.876;20.634;2024-03-23T01:10:13;31;28;18
50956;PMS5003;55361;50.876;20.634;2024-03-23T01:20:13;31;28;18
50956;PMS5003;55361;50.876;20.634;2024-03-23T01:30:10;31;28;18
50956;PMS5003;55361;50.876;20.634;2024-03-23T01:40:10;35;30;19
50956;PMS5003;55361;50.876;20.634;2024-03-23T01:50:17;35;30;19
50956;PMS5003;55361;50.876;20.634;2024-03-23T02:00:02;35;30;19
50956;PMS5003;55361;50.876;20.634;2024-03-23T02:10:10;28;27;18
50956;PMS5003;55361;50.876;20.634;2024-03-23T02:20:09;28;27;18
50956;PMS5003;55361;50.876;20.634;2024-03-23T02:30:09;28;27;18
50956;PMS5003;55361;50.876;20.634;2024-03-23T02:40:02;32;29;17
50956;PMS5003;55361;50.876;20.634;2024-03-23T02:50:16;32;29;17
50956;PMS5003;55361;50.876;20.634;2024-03-23T03:00:02;32;29;17
50956;PMS5003;55361;50.876;20.634;2024-03-23T03:10:10;30;27;16
50956;PMS5003;55361;50.876;20.634;2024-03-23T03:20:04;30;27;16
50956;PMS5003;55361;50.876;20.634;2024-03-23T03:30:06;30;27;16
50956;PMS5003;55361;50.876;20.634;2024-03-23T03:40:18;41;33;20
50956;PMS5003;55361;50.876;20.634;2024-03-23T03:50:03;41;33;20
50956;PMS5003;55361;50.876;20.634;2024-03-23T04:00:14;41;33;20
50956;PMS5003;55361;50.876;20.634;2024-03-23T04:10:01;34;31;19
50956;PMS5003;55361;50.876;20.634;2024-03-23T04:20:20;34;31;19
50956;PMS5003;55361;50.876;20.634;2024-03-23T04:30:18;34;31;19
50956;PMS5003;55361;50.876;20.634;2024-03-23T04:40:10;37;30;16
50956;PMS5003;55361;50.876;20.634;2024-03-23T04:50:17;37;30;16
50956;PMS5003;55361;50.876;20.634;2024-03-23T05:00:02;37;30;16
50956;PMS5003;55361;50.876;20.634;2024-03-23T05:10:04;36;26;16
50956;PMS5003;55361;50.876;20.634;2024-03-23T05:20:14;36;26;16
50956;PMS5003;55361;50.876;20.634;2024-03-23T05:30:15;36;26;16
50956;PMS5003;55361;50.876;20.634;2024-03-23T05:40:04;45;33;22
50956;PMS5003;55361;50.876;20.634;2024-03-23T05:50:15;45;33;22
50956;PMS5003;55361;50.876;20.634;2024-03-23T06:00:05;45;33;22
50956;PMS5003;55361;50.876;20.634;2024-03-23T06:10:02;37;29;19
50956;PMS5003;55361;50.876;20.634;2024-03-23T06:20:19;37;29;19
50956;PMS5003;55361;50.876;20.634;2024-03-23T06:30:16;37;29;19
50956;PMS5003;55361;50.876;20.634;2024-03-23T06:40:02;31;28;19
50956;PMS5003;55361;50.876;20.634;2024-03-23T06:50:10;31;28;19
50956;PMS5003;55361;50.876;20.634;2024-03-23T07:00:18;31;28;19
50956;PMS5003;55361;50.876;20.634;2024-03-23T07:10:09;38;30;20
50956;PMS5003;55361;50.876;20.634;2024-03-23T07:20:04;38;30;20
50956;PMS5003;55361;50.876;20.634;2024-03-23T07:30:15;38;30;20
50956;PMS5003;55361;50.876;20.634;2024-03-23T07:40:10;37;31;20
50956;PMS5003;55361;50.876;20.634;2024-03-23T07:50:06;37;31;20
50956;PMS5003;55361;50.876;20.634;2024-03-23T08:00:21;37;31;20
50956;PMS5003;55361;50.876;20.634;2024-03-23T08:10:08;33;28;19
50956;PMS5003;55361;50.876;20.634;2024-03-23T08:20:11;33;28;19
50956;PMS5003;55361;50.876;20.634;2024-03-23T08:30:08;33;28;19
50956;PMS5003;55361;50.876;20.634;2024-03-23T08:40:05;27;24;14
50956;PMS5003;55361;50.876;20.634;2024-03-23T08:50:11;27;24;14
50956;PMS5003;55361;50.876;20.634;2024-03-23T09:00:18;27;24;14
50956;PMS5003;55361;50.876;20.634;2024-03-23T09:10:10;29;27;19
50956;PMS5003;55361;50.876;20.634;2024-03-23T09:20:07;29;27;19
50956;PMS5003;55361;50.876;20.634;2024-03-23T09:30:16;29;27;19
50956;PMS5003;55361;50.876;20.634;2024-03-23T09:40:13;22;20;14
50956;PMS5003;55361;50.876;20.634;2024-03-23T09:50:05;22;20;14
50956;PMS5003;55361;50.876;20.634;2024-03-23T10:00:04;22;20;14
50956;PMS5003;55361;50.876;20.634;2024-03-23T10:10:15;25;22;15
50956;PMS5003;55361;50.876;20.634;2024-03-23T10:20:11;25;22;15
50956;PMS5003;55361;50.876;20.634;2024-03-23T10:30:17;25;22;15
50956;PMS5003;55361;50.876;20.634;2024-03-23T10:50:10;23;21;14
50956;PMS5003;55361;50.876;20.634;2024-03-23T11:00:17;23;21;14
50956;PMS5003;55361;50.876;20.634;2024-03-23T11:20:05;24;20;13
50956;PMS5003;55361;50.876;20.634;2024-03-23T11:30:09;24;20;13
50956;PMS5003;55361;50.876;20.634;2024-03-23T11:40:24;24;22;15
50956;PMS5003;55361;50.876;20.634;2024-03-23T11:50:20;24;22;15
50956;PMS5003;55361;50.876;20.634;2024-03-23T12:00:02;24;22;15
50956;PMS5003;55361;50.876;20.634;2024-03-23T12:10:13;24;21;13
50956;PMS5003;55361;50.876;20.634;2024-03-23T12:20:02;24;21;13
50956;PMS5003;55361;50.876;20.634;2024-03-23T12:30:14;24;21;13
50956;PMS5003;55361;50.876;20.634;2024-03-23T12:40:08;19;18;14
50956;PMS5003;55361;50.876;20.634;2024-03-23T12:50:15;19;18;14
50956;PMS5003;55361;50.876;20.634;2024-03-23T13:00:21;19;18;14
50956;PMS5003;55361;50.876;20.634;2024-03-23T13:10:14;20;17;12
50956;PMS5003;55361;50.876;20.634;2024-03-23T13:20:04;20;17;12
50956;PMS5003;55361;50.876;20.634;2024-03-23T13:30:16;20;17;12
50956;PMS5003;55361;50.876;20.634;2024-03-23T13:40:14;17;15;11
50956;PMS5003;55361;50.876;20.634;2024-03-23T13:50:13;17;15;11
50956;PMS5003;55361;50.876;20.634;2024-03-23T14:00:19;17;15;11
50956;PMS5003;55361;50.876;20.634;2024-03-23T14:10:07;21;20;13
50956;PMS5003;55361;50.876;20.634;2024-03-23T14:20:15;21;20;13
50956;PMS5003;55361;50.876;20.634;2024-03-23T14:30:12;21;20;13
50956;PMS5003;55361;50.876;20.634;2024-03-23T14:40:18;24;21;13
50956;PMS5003;55361;50.876;20.634;2024-03-23T14:50:08;24;21;13
50956;PMS5003;55361;50.876;20.634;2024-03-23T15:00:06;24;21;13
50956;PMS5003;55361;50.876;20.634;2024-03-23T15:20:16;23;20;13
50956;PMS5003;55361;50.876;20.634;2024-03-23T15:30:15;23;20;13
50956;PMS5003;55361;50.876;20.634;2024-03-23T15:50:12;10;10;8
50956;PMS5003;55361;50.876;20.634;2024-03-23T16:00:02;10;10;8
50956;PMS5003;55361;50.876;20.634;2024-03-23T16:10:01;10;10;8
50956;PMS5003;55361;50.876;20.634;2024-03-23T16:20:02;7;7;5
50956;PMS5003;55361;50.876;20.634;2024-03-23T16:30:04;7;7;5
50956;PMS5003;55361;50.876;20.634;2024-03-23T16:40:12;7;7;5
50956;PMS5003;55361;50.876;20.634;2024-03-23T16:50:04;18;14;9
50956;PMS5003;55361;50.876;20.634;2024-03-23T17:00:04;18;14;9
50956;PMS5003;55361;50.876;20.634;2024-03-23T17:10:03;18;14;9
50956;PMS5003;55361;50.876;20.634;2024-03-23T17:20:12;7;6;4
50956;PMS5003;55361;50.876;20.634;2024-03-23T17:30:15;7;6;4
50956;PMS5003;55361;50.876;20.634;2024-03-23T17:40:15;7;6;4
50956;PMS5003;55361;50.876;20.634;2024-03-23T17:50:14;10;9;6
50956;PMS5003;55361;50.876;20.634;2024-03-23T18:00:23;10;9;6
50956;PMS5003;55361;50.876;20.634;2024-03-23T18:10:07;10;9;6
50956;PMS5003;55361;50.876;20.634;2024-03-23T18:20:06;7;7;5
50956;PMS5003;55361;50.876;20.634;2024-03-23T18:30:10;7;7;5
50956;PMS5003;55361;50.876;20.634;2024-03-23T18:40:12;7;7;5
50956;PMS5003;55361;50.876;20.634;2024-03-23T18:50:06;7;7;6
50956;PMS5003;55361;50.876;20.634;2024-03-23T19:00:02;7;7;6
50956;PMS5003;55361;50.876;20.634;2024-03-23T19:10:11;7;7;6
50956;PMS5003;55361;50.876;20.634;2024-03-23T19:20:13;7;7;5
50956;PMS5003;55361;50.876;20.634;2024-03-23T19:30:15;7;7;5
50956;PMS5003;55361;50.876;20.634;2024-03-23T19:40:06;7;7;5
50956;PMS5003;55361;50.876;20.634;2024-03-23T19:50:02;8;8;6
50956;PMS5003;55361;50.876;20.634;2024-03-23T20:00:19;8;8;6
50956;PMS5003;55361;50.876;20.634;2024-03-23T20:10:14;8;8;6
50956;PMS5003;55361;50.876;20.634;2024-03-23T20:20:13;11;11;7
50956;PMS5003;55361;50.876;20.634;2024-03-23T20:30:14;11;11;7
50956;PMS5003;55361;50.876;20.634;2024-03-23T20:40:04;11;11;7
50956;PMS5003;55361;50.876;20.634;2024-03-23T20:50:05;9;6;4
50956;PMS5003;55361;50.876;20.634;2024-03-23T21:00:02;9;6;4
50956;PMS5003;55361;50.876;20.634;2024-03-23T21:10:07;9;6;4
50956;PMS5003;55361;50.876;20.634;2024-03-23T21:20:02;10;9;5
50956;PMS5003;55361;50.876;20.634;2024-03-23T21:30:15;10;9;5
50956;PMS5003;55361;50.876;20.634;2024-03-23T21:40:06;10;9;5
50956;PMS5003;55361;50.876;20.634;2024-03-23T21:50:13;7;6;3
50956;PMS5003;55361;50.876;20.634;2024-03-23T22:00:19;7;6;3
50956;PMS5003;55361;50.876;20.634;2024-03-23T22:10:10;7;6;3
50956;PMS5003;55361;50.876;20.634;2024-03-23T22:20:13;13;10;8
50956;PMS5003;55361;50.876;20.634;2024-03-23T22:30:11;13;10;8
50956;PMS5003;55361;50.876;20.634;2024-03-23T22:40:12;13;10;8
50956;PMS5003;55361;50.876;20.634;2024-03-23T22:50:13;10;10;6
50956;PMS5003;55361;50.876;20.634;2024-03-23T23:00:25;10;10;6
50956;PMS5003;55361;50.876;20.634;2024-03-23T23:10:14;11;6;5
50956;PMS5003;55361;50.876;20.634;2024-03-23T23:20:12;11;6;5
50956;PMS5003;55361;50.876;20.634;2024-03-23T23:30:08;11;6;5
50956;PMS5003;55361;50.876;20.634;2024-03-23T23:40:10;10;7;6
50956;PMS5003;55361;50.876;20.634;2024-03-23T23:50:06;10;7;6
